Terminal Aerodrome Forecast
Issued by NWS

Home | Current Version | Previous Version | Graphics & Text | Print | Product List | Glossary On
Versions: 1 2 3 4 5 6 7 8 9 10 11 12 13 14 15 16
000
FTUS43 KABR 240500
TAFMBG
TAF
KMBG 240520Z 2406/2506 33020G29KT P6SM OVC022
     FM241000 33018G27KT P6SM SCT030
     FM242200 32009KT P6SM SKC=

USA.gov is the U.S. government's official web portal to all federal, state and local government web resources and services.